»·PEaware :: N461D KSNA-KSAN

N461D :: KSNA-KSAN

FLIGHT INFORMATION

Flight Status: Arrived
Operator: Privately registered:
United States
More flights under this callsign
Pilot: Daniel R. (17770)
Aircraft: CESSNA 172 SKYHAWK
(C172)
More flights by this aircraft type
Origin: KSNA John Wayne-Orange Co
United States
Destination: KSAN San Diego Intl-Lindbergh
United States
More flights between these airports :: More routes between these airports
Route: +V23 MZB
File this flight plan on PilotEdge
Remarks:
Altitude:
(Current/Filed)
5,000ft
Speed:
(Current/Filed)
115kts
Departed: 09-Aug-18 06:15 PM
Arrived: 09-Aug-18 07:12 PM
Distance/Time
Traveled:
66nm/0:57
Distance/Time
To Go:
Arrived

Flight Plot

Page will automatically refresh every two minutes.


Map Options




Map Legend


Flown Route
Filed Route
Departure Airport
Arrival Airport
Navaid (VOR, NDB)
Fix

Horizontal Profiles

Position Reports

Time Latitude Longitude Heading Altitude Ground
Speed
09-Aug-18 17:54 33.665317 -117.873802 214 60ft 0kts
09-Aug-18 17:55 33.665317 -117.873802 214 60ft 0kts
09-Aug-18 17:56 33.665317 -117.873802 214 60ft 0kts
09-Aug-18 17:57 33.665317 -117.873802 214 60ft 0kts
09-Aug-18 17:58 33.665317 -117.873802 214 60ft 0kts
09-Aug-18 17:59 33.665317 -117.873802 214 60ft 0kts
09-Aug-18 18:00 33.665317 -117.873802 214 60ft 0kts
09-Aug-18 18:01 33.665317 -117.873802 214 60ft 0kts
09-Aug-18 18:02 33.665317 -117.873802 214 60ft 0kts
09-Aug-18 18:03 33.665317 -117.873802 214 60ft 0kts
09-Aug-18 18:04 33.665317 -117.873802 214 60ft 0kts
09-Aug-18 18:05 33.665317 -117.873802 214 60ft 0kts
09-Aug-18 18:06 33.665317 -117.873802 214 60ft 0kts
09-Aug-18 18:07 33.665941 -117.873654 25 60ft 16kts
09-Aug-18 18:08 33.668305 -117.871755 40 60ft 17kts
09-Aug-18 18:09 33.669948 -117.870616 123 60ft 0kts
09-Aug-18 18:10 33.669948 -117.870616 123 60ft 0kts
09-Aug-18 18:11 33.669919 -117.870236 58 60ft 9kts
09-Aug-18 18:12 33.674279 -117.866973 25 60ft 21kts
09-Aug-18 18:13 33.679382 -117.863748 25 60ft 18kts
09-Aug-18 18:14 33.680001 -117.863717 300 60ft 0kts
09-Aug-18 18:15 33.680020 -117.863755 300 60ft 3kts
09-Aug-18 18:16 33.669494 -117.870806 207 279ft 81kts
09-Aug-18 18:17 33.648488 -117.876644 186 1118ft 78kts
09-Aug-18 18:18 33.626833 -117.879753 186 1885ft 79kts
09-Aug-18 18:19 33.603669 -117.883157 186 2566ft 86kts
09-Aug-18 18:20 33.579781 -117.886838 186 3248ft 87kts
09-Aug-18 18:21 33.560912 -117.876143 111 3887ft 86kts
09-Aug-18 18:22 33.551215 -117.849864 111 4504ft 87kts
09-Aug-18 18:23 33.541128 -117.822974 111 4998ft 98kts
09-Aug-18 18:24 33.528352 -117.788856 111 5001ft 117kts
09-Aug-18 18:25 33.514794 -117.752821 111 5003ft 119kts
09-Aug-18 18:26 33.498616 -117.718471 133 5005ft 121kts
09-Aug-18 18:27 33.474211 -117.690316 133 5008ft 122kts
09-Aug-18 18:28 33.449703 -117.661565 138 5013ft 122kts
09-Aug-18 18:29 33.425800 -117.633641 138 5015ft 118kts
09-Aug-18 18:30 33.402367 -117.606257 138 5017ft 117kts
09-Aug-18 18:31 33.379107 -117.579078 138 5017ft 116kts
09-Aug-18 18:32 33.355749 -117.551804 138 4989ft 117kts
09-Aug-18 18:33 33.332312 -117.524444 138 4988ft 119kts
09-Aug-18 18:34 33.308709 -117.496911 138 4986ft 118kts
09-Aug-18 18:35 33.285188 -117.469494 138 4985ft 117kts
09-Aug-18 18:36 33.261955 -117.442445 138 4985ft 117kts
09-Aug-18 18:37 33.237609 -117.417102 159 4984ft 114kts
09-Aug-18 18:38 33.207739 -117.403947 162 4986ft 115kts
09-Aug-18 18:39 33.177488 -117.391074 162 4987ft 115kts
09-Aug-18 18:40 33.147162 -117.378300 162 4988ft 116kts
09-Aug-18 18:41 33.116521 -117.365411 162 4990ft 117kts
09-Aug-18 18:42 33.085777 -117.352486 162 4990ft 117kts
09-Aug-18 18:43 33.055481 -117.339765 163 4990ft 118kts
09-Aug-18 18:44 33.024594 -117.326807 163 4991ft 118kts
09-Aug-18 18:45 32.993573 -117.313792 163 4992ft 118kts
09-Aug-18 18:46 32.962474 -117.300756 163 4994ft 119kts
09-Aug-18 18:47 32.931205 -117.287661 163 4995ft 119kts
09-Aug-18 18:48 32.899970 -117.274591 163 4996ft 119kts
09-Aug-18 18:49 32.869032 -117.261650 163 4998ft 120kts
09-Aug-18 18:50 32.837609 -117.248519 163 4999ft 120kts
09-Aug-18 18:51 32.809764 -117.229623 107 4998ft 127kts
09-Aug-18 18:52 32.803935 -117.188303 101 5003ft 127kts
09-Aug-18 18:53 32.798467 -117.146676 101 5006ft 127kts
09-Aug-18 18:54 32.793109 -117.105181 101 5009ft 127kts
09-Aug-18 18:55 32.787839 -117.063572 101 5007ft 127kts
09-Aug-18 18:56 32.782696 -117.022137 101 5006ft 126kts
09-Aug-18 18:57 32.777668 -116.980822 101 5005ft 126kts
09-Aug-18 18:58 32.772726 -116.939552 101 5004ft 125kts
09-Aug-18 18:59 32.756101 -116.911244 180 4905ft 114kts
09-Aug-18 19:00 32.724227 -116.912880 186 4216ft 115kts
09-Aug-18 19:01 32.692992 -116.915693 186 3807ft 107kts
09-Aug-18 19:02 32.676087 -116.938014 261 3807ft 108kts
09-Aug-18 19:03 32.680522 -116.971498 282 3570ft 99kts
09-Aug-18 19:04 32.688079 -117.002635 283 3081ft 97kts
09-Aug-18 19:05 32.695535 -117.033176 283 2707ft 89kts
09-Aug-18 19:06 32.702415 -117.061560 283 2407ft 97kts
09-Aug-18 19:07 32.709834 -117.091871 283 1857ft 91kts
09-Aug-18 19:08 32.716272 -117.118234 283 1244ft 70kts
09-Aug-18 19:09 32.721004 -117.137962 279 678ft 58kts
09-Aug-18 19:10 32.726180 -117.159480 283 542ft 72kts
09-Aug-18 19:11 32.731681 -117.181867 283 29ft 65kts
09-Aug-18 19:13 32.733166 -117.183330 106 21ft 15kts
09-Aug-18 19:14 32.732775 -117.179719 195 21ft 0kts
09-Aug-18 19:15 32.732775 -117.179719 195 21ft 0kts
09-Aug-18 19:16 32.732775 -117.179719 195 21ft 0kts
09-Aug-18 19:17 32.732775 -117.179719 195 21ft 0kts
09-Aug-18 19:18 32.732775 -117.179719 195 21ft 0kts
09-Aug-18 19:19 32.732775 -117.179719 195 21ft 0kts
09-Aug-18 19:20 32.732775 -117.179719 195 21ft 0kts
09-Aug-18 19:21 32.732775 -117.179719 195 21ft 0kts
09-Aug-18 19:22 32.732775 -117.179719 195 21ft 0kts
09-Aug-18 19:23 32.732775 -117.179719 195 21ft 0kts

Navigation Log

Ident Type
1. KSNA Airport
2. MZB Navaid
3. KSAN Airport